sensor_id;sensor_type;location;lat;lon;timestamp;P1;durP1;ratioP1;P2;durP2;ratioP2
77078;SDS011;66004;55.096;38.760;2023-07-13T14:04:06;7.25;;;2.80;;
77078;SDS011;66004;55.096;38.760;2023-07-13T14:06:34;8.80;;;2.90;;
77078;SDS011;66004;55.096;38.760;2023-07-13T14:09:00;5.72;;;3.45;;
77078;SDS011;66004;55.096;38.760;2023-07-13T14:11:27;6.85;;;3.33;;
77078;SDS011;66004;55.096;38.760;2023-07-13T14:13:57;7.25;;;4.63;;
77078;SDS011;66004;55.096;38.760;2023-07-13T14:16:28;7.68;;;3.40;;
77078;SDS011;66004;55.096;38.760;2023-07-13T14:18:56;6.82;;;3.70;;
77078;SDS011;66004;55.096;38.760;2023-07-13T14:21:25;7.72;;;3.10;;
77078;SDS011;66004;55.096;38.760;2023-07-13T14:23:52;5.80;;;2.88;;
77078;SDS011;66004;55.096;38.760;2023-07-13T14:26:19;9.32;;;5.90;;
77078;SDS011;66004;55.096;38.760;2023-07-13T14:28:50;8.68;;;4.70;;
77078;SDS011;66004;55.096;38.760;2023-07-13T14:31:17;6.38;;;3.55;;
77078;SDS011;66004;55.096;38.760;2023-07-13T14:33:43;5.60;;;2.88;;
77078;SDS011;66004;55.096;38.760;2023-07-13T14:38:59;6.00;;;3.42;;
77078;SDS011;66004;55.096;38.760;2023-07-13T14:41:31;7.57;;;3.40;;
77078;SDS011;66004;55.096;38.760;2023-07-13T14:43:56;6.20;;;3.13;;
77078;SDS011;66004;55.096;38.760;2023-07-13T14:46:29;9.38;;;3.40;;
77078;SDS011;66004;55.096;38.760;2023-07-13T14:49:04;5.55;;;2.80;;
77078;SDS011;66004;55.096;38.760;2023-07-13T14:51:32;7.03;;;2.90;;
77078;SDS011;66004;55.096;38.760;2023-07-13T14:54:03;5.22;;;2.95;;
77078;SDS011;66004;55.096;38.760;2023-07-13T14:56:30;4.35;;;2.92;;
77078;SDS011;66004;55.096;38.760;2023-07-13T14:58:56;7.45;;;2.70;;
77078;SDS011;66004;55.096;38.760;2023-07-13T15:01:21;6.60;;;3.08;;
77078;SDS011;66004;55.096;38.760;2023-07-13T15:03:48;5.35;;;2.90;;
77078;SDS011;66004;55.096;38.760;2023-07-13T15:06:16;8.02;;;3.08;;
77078;SDS011;66004;55.096;38.760;2023-07-13T15:08:43;5.75;;;2.65;;
77078;SDS011;66004;55.096;38.760;2023-07-13T15:11:09;3.97;;;2.20;;
77078;SDS011;66004;55.096;38.760;2023-07-13T15:13:39;8.65;;;2.55;;
77078;SDS011;66004;55.096;38.760;2023-07-13T15:16:16;3.53;;;1.83;;
77078;SDS011;66004;55.096;38.760;2023-07-13T15:18:46;5.38;;;1.70;;
77078;SDS011;66004;55.096;38.760;2023-07-13T15:21:14;4.03;;;2.00;;
77078;SDS011;66004;55.096;38.760;2023-07-13T15:23:44;5.63;;;2.28;;
77078;SDS011;66004;55.096;38.760;2023-07-13T15:26:13;4.50;;;1.75;;
77078;SDS011;66004;55.096;38.760;2023-07-13T15:28:43;3.53;;;1.80;;
77078;SDS011;66004;55.096;38.760;2023-07-13T15:31:43;7.47;;;2.22;;
77078;SDS011;66004;55.096;38.760;2023-07-13T15:34:04;5.18;;;2.20;;
77078;SDS011;66004;55.096;38.760;2023-07-13T15:36:35;4.88;;;2.17;;
77078;SDS011;66004;55.096;38.760;2023-07-13T15:39:01;3.50;;;1.67;;
77078;SDS011;66004;55.096;38.760;2023-07-13T15:41:27;2.72;;;1.67;;
77078;SDS011;66004;55.096;38.760;2023-07-13T15:43:54;7.18;;;1.80;;
77078;SDS011;66004;55.096;38.760;2023-07-13T15:46:25;3.58;;;1.42;;
77078;SDS011;66004;55.096;38.760;2023-07-13T15:48:53;3.72;;;1.77;;
77078;SDS011;66004;55.096;38.760;2023-07-13T15:51:28;9.40;;;4.05;;
77078;SDS011;66004;55.096;38.760;2023-07-13T15:54:02;5.93;;;2.92;;
77078;SDS011;66004;55.096;38.760;2023-07-13T15:56:34;3.60;;;1.67;;
77078;SDS011;66004;55.096;38.760;2023-07-13T15:59:02;4.93;;;2.05;;
77078;SDS011;66004;55.096;38.760;2023-07-13T16:01:28;5.40;;;1.70;;
77078;SDS011;66004;55.096;38.760;2023-07-13T16:03:55;2.75;;;1.60;;
77078;SDS011;66004;55.096;38.760;2023-07-13T16:06:29;3.20;;;2.13;;
77078;SDS011;66004;55.096;38.760;2023-07-13T16:09:00;6.13;;;1.73;;
77078;SDS011;66004;55.096;38.760;2023-07-13T16:11:29;2.17;;;1.40;;
77078;SDS011;66004;55.096;38.760;2023-07-13T16:13:58;2.38;;;1.67;;
77078;SDS011;66004;55.096;38.760;2023-07-13T16:16:27;4.13;;;1.50;;
77078;SDS011;66004;55.096;38.760;2023-07-13T16:18:56;5.57;;;1.90;;
77078;SDS011;66004;55.096;38.760;2023-07-13T16:21:23;5.57;;;1.92;;
77078;SDS011;66004;55.096;38.760;2023-07-13T16:23:51;3.80;;;1.58;;
77078;SDS011;66004;55.096;38.760;2023-07-13T16:28:52;2.60;;;1.48;;
77078;SDS011;66004;55.096;38.760;2023-07-13T16:31:31;6.60;;;1.80;;
77078;SDS011;66004;55.096;38.760;2023-07-13T16:33:57;3.28;;;1.67;;
77078;SDS011;66004;55.096;38.760;2023-07-13T16:36:27;2.67;;;1.48;;
77078;SDS011;66004;55.096;38.760;2023-07-13T16:38:54;3.97;;;2.08;;
77078;SDS011;66004;55.096;38.760;2023-07-13T16:41:20;3.78;;;1.63;;
77078;SDS011;66004;55.096;38.760;2023-07-13T16:43:45;3.45;;;1.60;;
77078;SDS011;66004;55.096;38.760;2023-07-13T16:46:11;3.35;;;1.60;;
77078;SDS011;66004;55.096;38.760;2023-07-13T16:48:40;2.28;;;1.60;;
77078;SDS011;66004;55.096;38.760;2023-07-13T16:51:06;6.22;;;1.95;;
77078;SDS011;66004;55.096;38.760;2023-07-13T16:53:32;3.47;;;1.45;;
77078;SDS011;66004;55.096;38.760;2023-07-13T16:55:59;3.03;;;1.40;;
77078;SDS011;66004;55.096;38.760;2023-07-13T16:58:27;3.65;;;1.90;;
77078;SDS011;66004;55.096;38.760;2023-07-13T17:00:55;3.75;;;1.40;;
77078;SDS011;66004;55.096;38.760;2023-07-13T17:03:22;2.88;;;1.92;;
77078;SDS011;66004;55.096;38.760;2023-07-13T17:05:48;5.05;;;1.65;;
77078;SDS011;66004;55.096;38.760;2023-07-13T17:08:18;3.03;;;1.25;;
77078;SDS011;66004;55.096;38.760;2023-07-13T17:13:15;3.55;;;1.70;;
77078;SDS011;66004;55.096;38.760;2023-07-13T17:15:43;2.70;;;1.48;;
77078;SDS011;66004;55.096;38.760;2023-07-13T17:18:10;2.90;;;1.60;;
77078;SDS011;66004;55.096;38.760;2023-07-13T17:20:38;4.60;;;1.52;;
77078;SDS011;66004;55.096;38.760;2023-07-13T17:23:14;6.18;;;1.67;;
77078;SDS011;66004;55.096;38.760;2023-07-13T17:25:42;2.72;;;1.60;;
77078;SDS011;66004;55.096;38.760;2023-07-13T17:28:09;2.47;;;1.70;;
77078;SDS011;66004;55.096;38.760;2023-07-13T17:30:36;4.35;;;1.80;;
77078;SDS011;66004;55.096;38.760;2023-07-13T17:33:03;3.25;;;1.50;;
77078;SDS011;66004;55.096;38.760;2023-07-13T17:35:33;2.60;;;1.48;;
77078;SDS011;66004;55.096;38.760;2023-07-13T17:38:01;2.88;;;1.58;;
77078;SDS011;66004;55.096;38.760;2023-07-13T17:40:29;2.70;;;1.50;;
77078;SDS011;66004;55.096;38.760;2023-07-13T17:42:55;2.10;;;1.45;;
77078;SDS011;66004;55.096;38.760;2023-07-13T17:45:25;2.88;;;1.30;;
77078;SDS011;66004;55.096;38.760;2023-07-13T17:47:52;3.35;;;1.88;;
77078;SDS011;66004;55.096;38.760;2023-07-13T17:50:29;2.88;;;1.50;;
77078;SDS011;66004;55.096;38.760;2023-07-13T17:53:15;3.38;;;1.50;;
77078;SDS011;66004;55.096;38.760;2023-07-13T17:55:45;2.67;;;1.60;;
77078;SDS011;66004;55.096;38.760;2023-07-13T17:58:13;2.58;;;1.35;;
77078;SDS011;66004;55.096;38.760;2023-07-13T18:00:40;2.22;;;1.48;;
77078;SDS011;66004;55.096;38.760;2023-07-13T18:03:18;3.17;;;1.60;;
77078;SDS011;66004;55.096;38.760;2023-07-13T18:05:50;5.13;;;1.63;;
77078;SDS011;66004;55.096;38.760;2023-07-13T18:08:23;2.92;;;1.50;;
77078;SDS011;66004;55.096;38.760;2023-07-13T18:10:51;5.57;;;1.67;;
77078;SDS011;66004;55.096;38.760;2023-07-13T18:13:17;3.45;;;1.70;;
77078;SDS011;66004;55.096;38.760;2023-07-13T18:15:43;2.72;;;1.80;;
77078;SDS011;66004;55.096;38.760;2023-07-13T18:18:10;3.30;;;1.83;;
77078;SDS011;66004;55.096;38.760;2023-07-13T18:20:37;2.15;;;1.60;;
77078;SDS011;66004;55.096;38.760;2023-07-13T18:23:10;4.10;;;1.63;;
77078;SDS011;66004;55.096;38.760;2023-07-13T18:25:41;5.47;;;2.03;;
77078;SDS011;66004;55.096;38.760;2023-07-13T18:28:07;2.35;;;1.52;;
77078;SDS011;66004;55.096;38.760;2023-07-13T18:30:32;5.60;;;1.70;;
77078;SDS011;66004;55.096;38.760;2023-07-13T18:32:58;2.10;;;1.25;;
77078;SDS011;66004;55.096;38.760;2023-07-13T18:35:31;3.72;;;1.90;;
77078;SDS011;66004;55.096;38.760;2023-07-13T18:37:58;6.05;;;1.65;;
77078;SDS011;66004;55.096;38.760;2023-07-13T18:40:24;4.60;;;1.88;;
77078;SDS011;66004;55.096;38.760;2023-07-13T18:42:50;1.90;;;1.60;;
77078;SDS011;66004;55.096;38.760;2023-07-13T18:45:17;5.18;;;1.92;;
77078;SDS011;66004;55.096;38.760;2023-07-13T18:47:44;4.40;;;1.48;;
77078;SDS011;66004;55.096;38.760;2023-07-13T18:50:15;2.83;;;1.60;;
77078;SDS011;66004;55.096;38.760;2023-07-13T18:52:43;6.20;;;2.10;;
77078;SDS011;66004;55.096;38.760;2023-07-13T18:55:13;4.43;;;2.20;;
77078;SDS011;66004;55.096;38.760;2023-07-13T18:57:40;3.92;;;2.03;;
77078;SDS011;66004;55.096;38.760;2023-07-13T19:00:06;6.45;;;2.53;;
77078;SDS011;66004;55.096;38.760;2023-07-13T19:02:32;4.53;;;2.30;;
77078;SDS011;66004;55.096;38.760;2023-07-13T19:04:59;3.22;;;1.80;;
77078;SDS011;66004;55.096;38.760;2023-07-13T19:07:25;4.82;;;2.28;;
77078;SDS011;66004;55.096;38.760;2023-07-13T19:09:53;5.45;;;2.47;;
77078;SDS011;66004;55.096;38.760;2023-07-13T19:12:20;4.57;;;2.15;;
77078;SDS011;66004;55.096;38.760;2023-07-13T19:14:48;4.85;;;2.00;;
77078;SDS011;66004;55.096;38.760;2023-07-13T19:17:14;4.13;;;2.10;;
77078;SDS011;66004;55.096;38.760;2023-07-13T19:19:40;3.35;;;2.10;;
77078;SDS011;66004;55.096;38.760;2023-07-13T19:22:05;4.20;;;1.92;;
77078;SDS011;66004;55.096;38.760;2023-07-13T19:24:36;3.67;;;2.08;;
77078;SDS011;66004;55.096;38.760;2023-07-13T19:27:02;5.65;;;1.77;;
77078;SDS011;66004;55.096;38.760;2023-07-13T19:29:27;3.33;;;1.70;;
77078;SDS011;66004;55.096;38.760;2023-07-13T19:31:54;4.55;;;1.80;;
77078;SDS011;66004;55.096;38.760;2023-07-13T19:34:22;4.75;;;2.50;;
77078;SDS011;66004;55.096;38.760;2023-07-13T19:36:51;3.85;;;1.80;;
77078;SDS011;66004;55.096;38.760;2023-07-13T19:39:27;3.17;;;1.90;;
77078;SDS011;66004;55.096;38.760;2023-07-13T19:42:01;6.40;;;2.30;;
77078;SDS011;66004;55.096;38.760;2023-07-13T19:44:32;3.72;;;1.90;;
77078;SDS011;66004;55.096;38.760;2023-07-13T19:46:57;6.03;;;2.10;;
77078;SDS011;66004;55.096;38.760;2023-07-13T19:49:24;4.72;;;2.28;;
77078;SDS011;66004;55.096;38.760;2023-07-13T19:51:50;6.05;;;2.47;;
77078;SDS011;66004;55.096;38.760;2023-07-13T19:54:15;4.43;;;1.65;;
77078;SDS011;66004;55.096;38.760;2023-07-13T19:56:44;5.05;;;1.65;;
77078;SDS011;66004;55.096;38.760;2023-07-13T19:59:23;3.15;;;1.60;;
77078;SDS011;66004;55.096;38.760;2023-07-13T20:01:49;2.50;;;1.92;;
77078;SDS011;66004;55.096;38.760;2023-07-13T20:04:15;2.97;;;1.83;;
77078;SDS011;66004;55.096;38.760;2023-07-13T20:06:40;4.10;;;2.22;;
77078;SDS011;66004;55.096;38.760;2023-07-13T20:09:16;3.45;;;2.10;;
77078;SDS011;66004;55.096;38.760;2023-07-13T20:11:46;2.80;;;1.92;;
77078;SDS011;66004;55.096;38.760;2023-07-13T20:14:16;3.60;;;2.10;;
77078;SDS011;66004;55.096;38.760;2023-07-13T20:16:44;6.30;;;2.03;;
77078;SDS011;66004;55.096;38.760;2023-07-13T20:19:14;4.57;;;2.00;;
77078;SDS011;66004;55.096;38.760;2023-07-13T20:21:41;2.53;;;1.70;;
77078;SDS011;66004;55.096;38.760;2023-07-13T20:24:14;2.03;;;1.48;;
77078;SDS011;66004;55.096;38.760;2023-07-13T20:26:42;2.72;;;1.80;;
77078;SDS011;66004;55.096;38.760;2023-07-13T20:29:09;6.63;;;2.17;;
77078;SDS011;66004;55.096;38.760;2023-07-13T20:31:35;3.97;;;2.25;;
77078;SDS011;66004;55.096;38.760;2023-07-13T20:34:01;3.60;;;1.55;;
77078;SDS011;66004;55.096;38.760;2023-07-13T20:36:28;4.68;;;2.00;;
77078;SDS011;66004;55.096;38.760;2023-07-13T20:38:54;4.85;;;2.08;;
77078;SDS011;66004;55.096;38.760;2023-07-13T20:41:20;7.28;;;1.77;;
77078;SDS011;66004;55.096;38.760;2023-07-13T20:43:47;6.82;;;1.60;;
77078;SDS011;66004;55.096;38.760;2023-07-13T20:46:14;3.15;;;1.95;;
77078;SDS011;66004;55.096;38.760;2023-07-13T20:48:43;4.45;;;1.67;;
77078;SDS011;66004;55.096;38.760;2023-07-13T20:51:13;3.60;;;2.42;;
77078;SDS011;66004;55.096;38.760;2023-07-13T20:53:41;3.38;;;2.20;;
77078;SDS011;66004;55.096;38.760;2023-07-13T20:56:11;5.82;;;2.20;;
77078;SDS011;66004;55.096;38.760;2023-07-13T20:58:42;6.95;;;2.30;;
77078;SDS011;66004;55.096;38.760;2023-07-13T21:01:12;3.67;;;1.90;;
77078;SDS011;66004;55.096;38.760;2023-07-13T21:03:40;2.88;;;2.17;;
77078;SDS011;66004;55.096;38.760;2023-07-13T21:06:11;3.08;;;2.05;;
77078;SDS011;66004;55.096;38.760;2023-07-13T21:08:40;3.33;;;2.15;;
77078;SDS011;66004;55.096;38.760;2023-07-13T21:11:06;3.38;;;2.00;;
77078;SDS011;66004;55.096;38.760;2023-07-13T21:13:32;3.83;;;2.38;;
77078;SDS011;66004;55.096;38.760;2023-07-13T21:15:59;2.72;;;1.92;;
77078;SDS011;66004;55.096;38.760;2023-07-13T21:18:39;4.68;;;2.50;;
77078;SDS011;66004;55.096;38.760;2023-07-13T21:21:04;4.18;;;2.38;;
77078;SDS011;66004;55.096;38.760;2023-07-13T21:23:34;4.05;;;2.20;;
77078;SDS011;66004;55.096;38.760;2023-07-13T21:26:03;4.40;;;2.53;;
77078;SDS011;66004;55.096;38.760;2023-07-13T21:28:33;3.72;;;2.38;;
77078;SDS011;66004;55.096;38.760;2023-07-13T21:31:07;4.18;;;2.10;;
77078;SDS011;66004;55.096;38.760;2023-07-13T21:33:39;3.67;;;2.65;;
77078;SDS011;66004;55.096;38.760;2023-07-13T21:36:04;3.92;;;2.65;;
77078;SDS011;66004;55.096;38.760;2023-07-13T21:38:32;3.67;;;2.38;;
77078;SDS011;66004;55.096;38.760;2023-07-13T21:41:04;4.28;;;2.22;;
77078;SDS011;66004;55.096;38.760;2023-07-13T21:46:03;4.00;;;2.40;;
77078;SDS011;66004;55.096;38.760;2023-07-13T21:48:28;5.60;;;2.45;;
77078;SDS011;66004;55.096;38.760;2023-07-13T21:50:54;3.30;;;2.20;;
77078;SDS011;66004;55.096;38.760;2023-07-13T21:53:21;6.55;;;2.28;;
77078;SDS011;66004;55.096;38.760;2023-07-13T21:55:47;3.55;;;2.15;;
77078;SDS011;66004;55.096;38.760;2023-07-13T22:00:48;4.75;;;2.47;;
77078;SDS011;66004;55.096;38.760;2023-07-13T22:03:22;5.65;;;2.50;;
77078;SDS011;66004;55.096;38.760;2023-07-13T22:05:49;5.68;;;2.58;;
77078;SDS011;66004;55.096;38.760;2023-07-13T22:08:16;3.67;;;2.58;;
77078;SDS011;66004;55.096;38.760;2023-07-13T22:10:43;2.88;;;2.28;;
77078;SDS011;66004;55.096;38.760;2023-07-13T22:13:09;5.68;;;2.30;;
77078;SDS011;66004;55.096;38.760;2023-07-13T22:15:35;4.78;;;2.90;;
77078;SDS011;66004;55.096;38.760;2023-07-13T22:18:02;6.07;;;2.80;;
77078;SDS011;66004;55.096;38.760;2023-07-13T22:20:36;4.97;;;2.60;;
77078;SDS011;66004;55.096;38.760;2023-07-13T22:23:09;5.35;;;2.60;;
77078;SDS011;66004;55.096;38.760;2023-07-13T22:25:49;4.63;;;2.42;;
77078;SDS011;66004;55.096;38.760;2023-07-13T22:28:18;5.13;;;2.20;;
77078;SDS011;66004;55.096;38.760;2023-07-13T22:30:46;2.42;;;2.03;;
77078;SDS011;66004;55.096;38.760;2023-07-13T22:33:15;4.50;;;2.58;;
77078;SDS011;66004;55.096;38.760;2023-07-13T22:35:43;6.05;;;2.72;;
77078;SDS011;66004;55.096;38.760;2023-07-13T22:38:27;3.42;;;2.25;;
77078;SDS011;66004;55.096;38.760;2023-07-13T22:40:57;4.70;;;2.40;;
77078;SDS011;66004;55.096;38.760;2023-07-13T22:43:23;5.90;;;3.22;;
77078;SDS011;66004;55.096;38.760;2023-07-13T22:45:52;3.75;;;2.60;;
77078;SDS011;66004;55.096;38.760;2023-07-13T22:48:21;4.60;;;2.60;;
77078;SDS011;66004;55.096;38.760;2023-07-13T22:50:49;6.63;;;2.65;;
77078;SDS011;66004;55.096;38.760;2023-07-13T22:53:25;4.10;;;2.47;;
77078;SDS011;66004;55.096;38.760;2023-07-13T22:55:55;5.35;;;2.63;;
77078;SDS011;66004;55.096;38.760;2023-07-13T22:58:24;5.18;;;2.63;;
77078;SDS011;66004;55.096;38.760;2023-07-13T23:00:56;6.68;;;2.72;;
77078;SDS011;66004;55.096;38.760;2023-07-13T23:03:24;5.65;;;2.53;;
77078;SDS011;66004;55.096;38.760;2023-07-13T23:05:53;7.50;;;2.80;;
77078;SDS011;66004;55.096;38.760;2023-07-13T23:08:19;6.43;;;2.95;;
77078;SDS011;66004;55.096;38.760;2023-07-13T23:10:46;4.25;;;2.28;;
77078;SDS011;66004;55.096;38.760;2023-07-13T23:13:13;4.13;;;2.72;;
77078;SDS011;66004;55.096;38.760;2023-07-13T23:15:39;7.50;;;2.38;;
77078;SDS011;66004;55.096;38.760;2023-07-13T23:18:04;5.18;;;2.60;;
77078;SDS011;66004;55.096;38.760;2023-07-13T23:20:32;6.15;;;2.20;;
77078;SDS011;66004;55.096;38.760;2023-07-13T23:22:59;3.80;;;2.65;;
77078;SDS011;66004;55.096;38.760;2023-07-13T23:25:26;4.30;;;2.67;;
77078;SDS011;66004;55.096;38.760;2023-07-13T23:27:53;3.63;;;2.42;;
77078;SDS011;66004;55.096;38.760;2023-07-13T23:30:21;3.17;;;2.13;;
77078;SDS011;66004;55.096;38.760;2023-07-13T23:32:49;8.25;;;2.58;;
77078;SDS011;66004;55.096;38.760;2023-07-13T23:35:23;3.72;;;2.22;;
77078;SDS011;66004;55.096;38.760;2023-07-13T23:37:49;4.65;;;2.60;;
77078;SDS011;66004;55.096;38.760;2023-07-13T23:40:16;4.65;;;2.70;;
77078;SDS011;66004;55.096;38.760;2023-07-13T23:42:44;5.38;;;2.38;;
77078;SDS011;66004;55.096;38.760;2023-07-13T23:45:17;4.63;;;2.30;;
77078;SDS011;66004;55.096;38.760;2023-07-13T23:47:47;5.90;;;3.10;;
77078;SDS011;66004;55.096;38.760;2023-07-13T23:50:24;5.72;;;2.55;;
77078;SDS011;66004;55.096;38.760;2023-07-13T23:52:54;3.75;;;2.60;;
77078;SDS011;66004;55.096;38.760;2023-07-13T23:55:25;4.40;;;2.67;;
77078;SDS011;66004;55.096;38.760;2023-07-13T23:57:56;3.78;;;2.55;;
